createdAt,value
2022-11-12T00:01:07.253Z,2.50
2022-11-12T00:03:34.616Z,2.20
2022-11-12T00:06:01.672Z,2.38
2022-11-12T00:08:29.279Z,1.92
2022-11-12T00:10:56.601Z,2.25
2022-11-12T00:13:23.575Z,2.03
2022-11-12T00:15:50.625Z,2.08
2022-11-12T00:18:17.609Z,2.10
2022-11-12T00:20:45.133Z,2.03
2022-11-12T00:23:12.352Z,1.88
2022-11-12T00:25:39.448Z,2.22
2022-11-12T00:28:09.657Z,2.03
2022-11-12T00:30:40.656Z,2.42
2022-11-12T00:33:08.446Z,2.38
2022-11-12T00:35:35.618Z,2.20
2022-11-12T00:38:03.088Z,1.77
2022-11-12T00:40:30.246Z,1.88
2022-11-12T00:42:57.431Z,1.40
2022-11-12T00:45:24.921Z,1.15
2022-11-12T00:47:56.625Z,1.80
2022-11-12T00:50:24.245Z,1.55
2022-11-12T00:52:53.140Z,1.92
2022-11-12T00:55:20.170Z,1.50
2022-11-12T00:57:47.153Z,1.73
2022-11-12T01:00:19.256Z,2.35
2022-11-12T01:02:51.066Z,1.70
2022-11-12T01:05:19.726Z,2.17
2022-11-12T01:07:51.640Z,2.50
2022-11-12T01:10:21.844Z,1.60
2022-11-12T01:12:49.005Z,1.33
2022-11-12T01:15:16.097Z,1.85
2022-11-12T01:17:43.069Z,1.73
2022-11-12T01:20:10.348Z,2.20
2022-11-12T01:22:37.461Z,2.10
2022-11-12T01:25:04.791Z,1.83
2022-11-12T01:27:31.958Z,1.80
2022-11-12T01:29:59.713Z,1.55
2022-11-12T01:32:27.949Z,1.60
2022-11-12T01:34:55.064Z,1.80
2022-11-12T01:37:22.281Z,1.70
2022-11-12T01:39:49.259Z,1.58
2022-11-12T01:42:16.321Z,1.70
2022-11-12T01:44:46.428Z,1.55
2022-11-12T01:47:15.097Z,1.60
2022-11-12T01:49:50.300Z,1.90
2022-11-12T01:52:35.154Z,1.65
2022-11-12T01:55:07.848Z,2.25
2022-11-12T01:57:41.608Z,1.77
2022-11-12T02:00:12.387Z,1.98
2022-11-12T02:02:40.533Z,2.33
2022-11-12T02:05:10.915Z,2.00
2022-11-12T02:07:40.480Z,1.50
2022-11-12T02:10:09.689Z,2.47
2022-11-12T02:12:55.781Z,1.60
2022-11-12T02:15:22.869Z,1.20
2022-11-12T02:17:50.331Z,1.73
2022-11-12T02:20:17.630Z,1.33
2022-11-12T02:22:44.840Z,1.15
2022-11-12T02:25:16.912Z,1.20
2022-11-12T02:27:45.470Z,1.10
2022-11-12T02:30:12.814Z,1.55
2022-11-12T02:32:40.085Z,1.50
2022-11-12T02:35:07.555Z,1.02
2022-11-12T02:37:34.521Z,1.50
2022-11-12T02:40:01.522Z,1.77
2022-11-12T02:42:28.527Z,1.30
2022-11-12T02:44:55.540Z,1.30
2022-11-12T02:47:22.520Z,1.00
2022-11-12T02:49:49.633Z,0.85
2022-11-12T02:52:16.609Z,0.90
2022-11-12T02:54:44.160Z,1.23
2022-11-12T02:57:11.214Z,1.17
2022-11-12T02:59:38.176Z,1.15
2022-11-12T03:02:05.347Z,1.17
2022-11-12T03:04:32.377Z,1.30
2022-11-12T03:06:59.361Z,1.30
2022-11-12T03:09:27.593Z,1.13
2022-11-12T03:11:54.586Z,0.73
2022-11-12T03:14:22.008Z,0.93
2022-11-12T03:16:49.187Z,0.90
2022-11-12T03:19:16.519Z,1.17
2022-11-12T03:21:43.490Z,0.60
2022-11-12T03:24:10.446Z,0.95
2022-11-12T03:26:37.419Z,0.80
2022-11-12T03:29:04.444Z,0.80
2022-11-12T03:31:31.590Z,0.93
2022-11-12T03:33:58.602Z,0.57
2022-11-12T03:36:25.636Z,0.30
2022-11-12T03:38:52.580Z,1.25
2022-11-12T03:41:19.676Z,0.52
2022-11-12T03:43:47.275Z,0.43
2022-11-12T03:46:14.269Z,0.50
2022-11-12T03:48:42.517Z,0.57
2022-11-12T03:51:10.090Z,0.35
2022-11-12T03:53:37.026Z,0.20
2022-11-12T03:56:04.165Z,0.40
2022-11-12T03:58:31.143Z,0.30
2022-11-12T04:00:58.161Z,0.38
2022-11-12T04:03:25.189Z,0.28
2022-11-12T04:06:10.777Z,0.10
2022-11-12T04:08:37.985Z,0.20
2022-11-12T04:11:14.741Z,0.10
2022-11-12T04:13:45.685Z,0.30
2022-11-12T04:16:37.993Z,0.22
2022-11-12T04:19:24.854Z,0.20
2022-11-12T04:22:10.813Z,0.20
2022-11-12T04:25:01.284Z,0.30
2022-11-12T04:27:31.264Z,0.20
2022-11-12T04:30:16.831Z,0.20
2022-11-12T04:32:54.835Z,0.30
2022-11-12T04:35:23.692Z,0.10
2022-11-12T04:37:51.415Z,0.10
2022-11-12T04:40:42.810Z,0.20
2022-11-12T04:43:33.414Z,0.10
2022-11-12T04:46:01.940Z,0.20
2022-11-12T04:48:29.957Z,0.10
2022-11-12T04:51:02.864Z,0.15
2022-11-12T04:53:31.214Z,0.10
2022-11-12T04:55:59.136Z,0.20
2022-11-12T04:58:26.627Z,0.10
2022-11-12T05:00:53.907Z,0.20
2022-11-12T05:03:20.982Z,0.20
2022-11-12T05:05:48.178Z,0.20
2022-11-12T05:08:15.137Z,0.10
2022-11-12T05:10:42.295Z,0.20
2022-11-12T05:13:09.437Z,0.20
2022-11-12T05:15:36.450Z,0.10
2022-11-12T05:18:03.554Z,0.10
2022-11-12T05:20:30.820Z,0.10
2022-11-12T05:23:07.060Z,0.20
2022-11-12T05:25:35.980Z,0.10
2022-11-12T05:28:03.284Z,0.20
2022-11-12T05:30:30.281Z,0.10
2022-11-12T05:32:57.250Z,0.22
2022-11-12T05:35:24.406Z,0.20
2022-11-12T05:37:51.362Z,0.20
2022-11-12T05:40:18.415Z,0.20
2022-11-12T05:42:45.535Z,0.20
2022-11-12T05:45:12.681Z,0.20
2022-11-12T05:47:39.646Z,0.20
2022-11-12T05:50:07.203Z,0.17
2022-11-12T05:52:34.163Z,0.25
2022-11-12T05:55:01.099Z,0.38
2022-11-12T05:57:28.300Z,0.30
2022-11-12T05:59:55.228Z,0.20
2022-11-12T06:02:22.443Z,0.20
2022-11-12T06:04:49.516Z,0.55
2022-11-12T06:07:16.515Z,0.30
2022-11-12T06:09:43.506Z,0.30
2022-11-12T06:12:10.677Z,0.28
2022-11-12T06:14:37.844Z,0.25
2022-11-12T06:17:04.853Z,0.30
2022-11-12T06:19:32.041Z,0.20
2022-11-12T06:21:58.990Z,0.20
2022-11-12T06:24:30.696Z,0.22
2022-11-12T06:27:00.813Z,0.30
2022-11-12T06:29:28.089Z,0.30
2022-11-12T06:31:55.066Z,0.30
2022-11-12T06:34:22.131Z,0.30
2022-11-12T06:36:49.332Z,0.30
2022-11-12T06:39:16.273Z,0.22
2022-11-12T06:41:43.462Z,0.22
2022-11-12T06:44:10.706Z,1.35
2022-11-12T06:46:37.643Z,0.30
2022-11-12T06:49:04.663Z,0.38
2022-11-12T06:51:31.714Z,0.50
2022-11-12T06:53:59.074Z,0.35
2022-11-12T06:56:26.116Z,0.52
2022-11-12T06:58:53.465Z,0.40
2022-11-12T07:01:20.495Z,0.35
2022-11-12T07:03:51.968Z,0.40
2022-11-12T07:06:20.631Z,0.63
2022-11-12T07:08:49.253Z,0.30
2022-11-12T07:11:17.664Z,0.20
2022-11-12T07:13:45.117Z,0.20
2022-11-12T07:16:12.600Z,0.30
2022-11-12T07:18:40.118Z,0.20
2022-11-12T07:21:11.502Z,0.30
2022-11-12T07:23:38.909Z,0.30
2022-11-12T07:26:08.368Z,0.20
2022-11-12T07:28:35.478Z,0.30
2022-11-12T07:31:05.079Z,0.30
2022-11-12T07:33:33.516Z,0.35
2022-11-12T07:36:06.153Z,0.20
2022-11-12T07:38:38.900Z,0.20
2022-11-12T07:41:18.198Z,0.20
2022-11-12T07:43:46.909Z,0.30
2022-11-12T07:46:18.314Z,0.38
2022-11-12T07:48:46.651Z,0.30
2022-11-12T07:51:25.596Z,0.30
2022-11-12T07:53:58.893Z,0.25
2022-11-12T07:56:28.191Z,0.50
2022-11-12T07:58:55.275Z,0.30
2022-11-12T08:01:39.469Z,0.50
2022-11-12T08:04:09.363Z,0.20
2022-11-12T08:06:37.183Z,0.10
2022-11-12T08:09:06.990Z,0.20
2022-11-12T08:11:34.666Z,0.20
2022-11-12T08:14:02.316Z,0.40
2022-11-12T08:16:29.885Z,0.63
2022-11-12T08:18:56.913Z,0.20
2022-11-12T08:21:24.226Z,0.30
2022-11-12T08:23:51.410Z,0.20
2022-11-12T08:26:20.548Z,0.20
2022-11-12T08:28:47.557Z,0.30
2022-11-12T08:31:17.403Z,0.40
2022-11-12T08:33:45.315Z,0.30
2022-11-12T08:36:14.785Z,0.30
2022-11-12T08:38:41.976Z,0.30
2022-11-12T08:41:11.498Z,0.30
2022-11-12T08:43:40.664Z,0.30
2022-11-12T08:46:07.790Z,0.38
2022-11-12T08:48:36.003Z,0.30
2022-11-12T08:51:04.738Z,0.30
2022-11-12T08:53:32.290Z,0.30
2022-11-12T08:56:00.121Z,0.30
2022-11-12T08:58:27.702Z,0.40
2022-11-12T09:00:55.633Z,0.40
2022-11-12T09:03:25.129Z,0.32
2022-11-12T09:05:53.057Z,0.50
2022-11-12T09:08:22.831Z,0.35
2022-11-12T09:10:50.889Z,0.40
2022-11-12T09:13:18.658Z,0.60
2022-11-12T09:15:46.625Z,0.20
2022-11-12T09:18:16.230Z,0.30
2022-11-12T09:20:43.444Z,0.40
2022-11-12T09:23:13.340Z,0.30
2022-11-12T09:25:41.366Z,0.28
2022-11-12T09:28:16.671Z,0.20
2022-11-12T09:30:46.676Z,0.40
2022-11-12T09:33:19.185Z,0.30
2022-11-12T09:35:47.295Z,0.20
2022-11-12T09:38:15.406Z,0.22
2022-11-12T09:40:45.154Z,0.40
2022-11-12T09:43:34.713Z,0.20
2022-11-12T09:46:28.333Z,0.40
2022-11-12T09:49:18.593Z,0.43
2022-11-12T09:52:00.561Z,0.32
2022-11-12T09:54:32.670Z,0.10
2022-11-12T09:56:59.939Z,0.25
2022-11-12T09:59:37.729Z,0.57
2022-11-12T10:02:23.608Z,0.60
2022-11-12T10:04:59.058Z,0.40
2022-11-12T10:07:36.958Z,0.25
2022-11-12T10:10:18.337Z,0.50
2022-11-12T10:13:13.182Z,0.70
2022-11-12T10:16:16.089Z,0.50
2022-11-12T10:19:12.384Z,0.35
2022-11-12T10:21:51.050Z,0.63
2022-11-12T10:24:21.846Z,0.45
2022-11-12T10:26:49.307Z,0.30
2022-11-12T10:29:16.202Z,0.50
2022-11-12T10:31:43.269Z,0.35
2022-11-12T10:34:23.198Z,0.38
2022-11-12T10:37:04.633Z,0.20
2022-11-12T10:39:44.169Z,0.22
2022-11-12T10:42:20.260Z,0.77
2022-11-12T10:44:48.069Z,0.35
2022-11-12T10:47:33.180Z,0.88
2022-11-12T10:50:09.188Z,0.88
2022-11-12T10:52:37.058Z,0.57
2022-11-12T10:55:15.057Z,0.88
2022-11-12T10:57:42.313Z,0.77
2022-11-12T11:00:18.939Z,0.55
2022-11-12T11:02:55.930Z,0.30
2022-11-12T11:05:39.383Z,0.35
2022-11-12T11:08:06.613Z,0.43
2022-11-12T11:10:36.587Z,0.70
2022-11-12T11:13:22.426Z,0.50
2022-11-12T11:16:01.464Z,0.50
2022-11-12T11:18:31.090Z,0.50
2022-11-12T11:21:16.281Z,0.50
2022-11-12T11:24:20.788Z,0.52
2022-11-12T11:26:59.984Z,0.60
2022-11-12T11:29:41.955Z,0.38
2022-11-12T11:32:41.289Z,0.70
2022-11-12T11:35:40.550Z,0.32
2022-11-12T11:38:24.065Z,0.70
2022-11-12T11:41:11.047Z,0.70
2022-11-12T11:43:47.155Z,0.82
2022-11-12T11:46:29.096Z,0.63
2022-11-12T11:49:11.085Z,0.55
2022-11-12T11:51:49.893Z,0.73
2022-11-12T11:54:32.270Z,0.40
2022-11-12T11:57:03.899Z,0.60
2022-11-12T11:59:51.815Z,0.63
2022-11-12T12:03:00.875Z,0.85
2022-11-12T12:05:42.438Z,0.50
2022-11-12T12:08:16.740Z,0.60
2022-11-12T12:11:07.629Z,0.70
2022-11-12T12:13:56.325Z,0.70
2022-11-12T12:16:54.130Z,0.68
2022-11-12T12:19:24.250Z,0.70
2022-11-12T12:21:52.600Z,0.70
2022-11-12T12:24:35.598Z,0.90
2022-11-12T12:27:26.103Z,0.50
2022-11-12T12:30:25.919Z,0.70
2022-11-12T12:33:01.377Z,0.73
2022-11-12T12:35:35.367Z,0.90
2022-11-12T12:38:13.258Z,0.98
2022-11-12T12:40:53.411Z,0.77
2022-11-12T12:43:49.033Z,0.90
2022-11-12T12:46:20.598Z,1.08
2022-11-12T12:48:48.361Z,0.80
2022-11-12T12:51:15.541Z,0.80
2022-11-12T12:53:42.632Z,0.77
2022-11-12T12:56:15.482Z,1.10
2022-11-12T12:58:48.460Z,0.90
2022-11-12T13:01:21.459Z,0.88
2022-11-12T13:04:03.307Z,0.90
2022-11-12T13:06:52.984Z,1.08
2022-11-12T13:09:19.955Z,1.00
2022-11-12T13:12:06.879Z,1.05
2022-11-12T13:14:37.014Z,1.15
2022-11-12T13:17:07.095Z,1.10
2022-11-12T13:19:35.550Z,1.20
2022-11-12T13:22:17.616Z,1.10
2022-11-12T13:25:06.346Z,1.02
2022-11-12T13:27:45.576Z,1.00
2022-11-12T13:30:18.192Z,0.82
2022-11-12T13:32:48.140Z,0.88
2022-11-12T13:35:21.899Z,0.82
2022-11-12T13:38:02.743Z,1.00
2022-11-12T13:40:46.320Z,1.02
2022-11-12T13:43:34.131Z,1.33
2022-11-12T13:46:26.398Z,0.98
2022-11-12T13:49:09.288Z,0.80
2022-11-12T13:51:52.326Z,0.80
2022-11-12T13:54:32.121Z,1.08
2022-11-12T13:57:20.802Z,1.40
2022-11-12T13:59:48.048Z,0.88
2022-11-12T14:02:26.878Z,1.08
2022-11-12T14:04:54.585Z,1.00
2022-11-12T14:07:27.411Z,1.25
2022-11-12T14:09:57.164Z,1.48
2022-11-12T14:12:45.497Z,0.98
2022-11-12T14:15:30.824Z,1.02
2022-11-12T14:18:01.224Z,0.95
2022-11-12T14:20:39.943Z,1.40
2022-11-12T14:23:24.401Z,0.85
2022-11-12T14:25:57.282Z,1.02
2022-11-12T14:28:32.907Z,1.08
2022-11-12T14:31:02.073Z,1.02
2022-11-12T14:33:31.051Z,0.82
2022-11-12T14:36:15.056Z,1.10
2022-11-12T14:38:55.449Z,1.27
2022-11-12T14:41:26.012Z,1.08
2022-11-12T14:44:12.147Z,1.08
2022-11-12T14:46:47.676Z,1.10
2022-11-12T14:49:44.283Z,1.30
2022-11-12T14:52:22.863Z,1.20
2022-11-12T14:54:59.185Z,1.10
2022-11-12T14:57:31.808Z,1.52
2022-11-12T14:59:58.890Z,1.05
2022-11-12T15:02:47.200Z,1.30
2022-11-12T15:05:19.641Z,1.30
2022-11-12T15:08:01.964Z,1.10
2022-11-12T15:10:39.710Z,1.20
2022-11-12T15:13:18.882Z,1.17
2022-11-12T15:15:56.050Z,1.15
2022-11-12T15:18:30.602Z,1.50
2022-11-12T15:21:12.802Z,1.00
2022-11-12T15:23:51.361Z,0.93
2022-11-12T15:26:46.243Z,1.20
2022-11-12T15:29:34.917Z,1.05
2022-11-12T15:32:13.685Z,0.82
2022-11-12T15:34:41.076Z,1.02
2022-11-12T15:37:31.592Z,1.42
2022-11-12T15:39:59.968Z,1.20
2022-11-12T15:42:32.552Z,1.20
2022-11-12T15:45:10.853Z,1.10
2022-11-12T15:47:37.833Z,1.20
2022-11-12T15:50:18.824Z,1.20
2022-11-12T15:52:46.008Z,1.02
2022-11-12T15:55:13.523Z,1.20
2022-11-12T15:57:50.793Z,1.15
2022-11-12T16:00:25.765Z,1.17
2022-11-12T16:02:59.386Z,1.05
2022-11-12T16:05:26.519Z,1.00
2022-11-12T16:07:53.464Z,1.52
2022-11-12T16:10:20.468Z,1.10
2022-11-12T16:12:48.313Z,1.42
2022-11-12T16:15:18.469Z,1.42
2022-11-12T16:17:46.340Z,1.10
2022-11-12T16:20:18.519Z,1.17
2022-11-12T16:22:45.513Z,1.35
2022-11-12T16:25:12.601Z,0.88
2022-11-12T16:27:40.303Z,1.92
2022-11-12T16:30:18.725Z,1.05
2022-11-12T16:32:47.900Z,1.02
2022-11-12T16:35:16.435Z,1.23
2022-11-12T16:37:44.962Z,1.10
2022-11-12T16:40:21.154Z,1.20
2022-11-12T16:42:48.181Z,1.45
2022-11-12T16:45:23.898Z,1.50
2022-11-12T16:47:56.481Z,0.95
2022-11-12T16:50:26.174Z,1.25
2022-11-12T16:52:53.691Z,0.95
2022-11-12T16:55:21.669Z,1.50
2022-11-12T16:57:48.705Z,0.88
2022-11-12T17:00:18.117Z,1.35
2022-11-12T17:02:48.322Z,1.17
2022-11-12T17:05:21.247Z,1.08
2022-11-12T17:07:49.315Z,1.00
2022-11-12T17:10:17.006Z,1.00
2022-11-12T17:12:48.123Z,1.00
2022-11-12T17:15:15.142Z,1.30
2022-11-12T17:17:42.282Z,1.10
2022-11-12T17:20:10.147Z,0.85
2022-11-12T17:22:37.403Z,1.27
2022-11-12T17:25:05.714Z,0.93
2022-11-12T17:27:32.950Z,0.80
2022-11-12T17:29:59.892Z,0.90
2022-11-12T17:32:26.890Z,1.10
2022-11-12T17:34:53.838Z,1.10
2022-11-12T17:37:20.893Z,1.27
2022-11-12T17:39:48.224Z,1.20
2022-11-12T17:42:15.166Z,1.35
2022-11-12T17:44:42.355Z,1.17
2022-11-12T17:47:09.290Z,1.30
2022-11-12T17:49:36.263Z,1.15
2022-11-12T17:52:03.355Z,1.20
2022-11-12T17:54:30.274Z,1.23
2022-11-12T17:56:57.235Z,1.42
2022-11-12T17:59:24.591Z,1.38
2022-11-12T18:01:51.598Z,1.20
2022-11-12T18:04:18.515Z,1.13
2022-11-12T18:06:45.660Z,1.17
2022-11-12T18:09:15.395Z,1.48
2022-11-12T18:11:51.209Z,1.25
2022-11-12T18:14:18.189Z,1.33
2022-11-12T18:16:46.330Z,1.45
2022-11-12T18:19:13.381Z,1.83
2022-11-12T18:21:40.755Z,1.33
2022-11-12T18:24:14.086Z,1.30
2022-11-12T18:26:41.590Z,1.38
2022-11-12T18:29:08.594Z,1.15
2022-11-12T18:31:35.747Z,1.20
2022-11-12T18:34:02.765Z,1.42
2022-11-12T18:36:29.715Z,1.90
2022-11-12T18:38:56.723Z,1.00
2022-11-12T18:41:26.848Z,1.20
2022-11-12T18:43:55.187Z,1.40
2022-11-12T18:46:23.212Z,1.30
2022-11-12T18:48:50.762Z,1.17
2022-11-12T18:51:19.160Z,1.48
2022-11-12T18:53:46.686Z,1.15
2022-11-12T18:56:16.282Z,1.52
2022-11-12T18:58:43.616Z,1.40
2022-11-12T19:01:28.748Z,1.27
2022-11-12T19:03:56.930Z,1.30
2022-11-12T19:06:24.813Z,1.58
2022-11-12T19:08:52.269Z,1.20
2022-11-12T19:11:21.815Z,1.00
2022-11-12T19:13:53.515Z,1.38
2022-11-12T19:16:22.866Z,1.55
2022-11-12T19:18:51.367Z,1.50
2022-11-12T19:21:23.615Z,1.50
2022-11-12T19:23:54.298Z,1.20
2022-11-12T19:26:23.541Z,1.35
2022-11-12T19:28:50.757Z,1.25
2022-11-12T19:31:20.201Z,1.30
2022-11-12T19:33:47.428Z,1.25
2022-11-12T19:36:18.806Z,1.37
2022-11-12T19:38:45.755Z,1.20
2022-11-12T19:41:19.833Z,1.27
2022-11-12T19:43:47.560Z,1.20
2022-11-12T19:46:15.054Z,1.48
2022-11-12T19:48:42.631Z,1.45
2022-11-12T19:51:11.631Z,1.67
2022-11-12T19:53:44.711Z,1.30
2022-11-12T19:56:14.222Z,1.50
2022-11-12T19:58:46.610Z,2.00
2022-11-12T20:01:16.353Z,1.98
2022-11-12T20:03:43.874Z,2.10
2022-11-12T20:06:14.277Z,1.80
2022-11-12T20:08:41.967Z,1.65
2022-11-12T20:11:10.045Z,0.80
2022-11-12T20:13:37.291Z,1.50
2022-11-12T20:16:09.421Z,1.70
2022-11-12T20:18:36.396Z,1.17
2022-11-12T20:21:06.323Z,1.90
2022-11-12T20:23:36.169Z,1.65
2022-11-12T20:26:09.825Z,1.37
2022-11-12T20:28:38.919Z,1.60
2022-11-12T20:31:14.659Z,1.73
2022-11-12T20:33:42.795Z,1.73
2022-11-12T20:36:20.324Z,1.50
2022-11-12T20:38:49.974Z,1.40
2022-11-12T20:41:20.126Z,2.03
2022-11-12T20:43:47.678Z,1.30
2022-11-12T20:46:14.982Z,1.57
2022-11-12T20:48:43.420Z,1.37
2022-11-12T20:51:25.220Z,2.10
2022-11-12T20:54:00.062Z,0.93
2022-11-12T20:56:29.551Z,1.30
2022-11-12T20:58:57.474Z,1.60
2022-11-12T21:01:25.779Z,1.10
2022-11-12T21:03:54.121Z,1.17
2022-11-12T21:06:23.746Z,1.13
2022-11-12T21:08:51.238Z,1.87
2022-11-12T21:11:21.370Z,2.10
2022-11-12T21:13:49.634Z,1.57
2022-11-12T21:16:16.898Z,1.17
2022-11-12T21:18:44.249Z,1.47
2022-11-12T21:21:17.285Z,1.10
2022-11-12T21:23:44.940Z,1.30
2022-11-12T21:26:20.349Z,1.57
2022-11-12T21:28:52.926Z,1.10
2022-11-12T21:31:30.422Z,1.50
2022-11-12T21:34:04.322Z,1.00
2022-11-12T21:36:32.658Z,1.40
2022-11-12T21:38:59.801Z,1.17
2022-11-12T21:41:28.405Z,1.23
2022-11-12T21:43:55.491Z,1.00
2022-11-12T21:46:31.064Z,1.93
2022-11-12T21:48:58.057Z,1.50
2022-11-12T21:51:27.485Z,1.43
2022-11-12T21:54:03.317Z,1.57
2022-11-12T21:56:30.774Z,1.27
2022-11-12T21:59:00.516Z,1.07
2022-11-12T22:01:30.118Z,1.17
2022-11-12T22:03:58.854Z,1.20
2022-11-12T22:06:29.784Z,1.07
2022-11-12T22:08:58.167Z,1.23
2022-11-12T22:11:26.633Z,1.10
2022-11-12T22:13:54.142Z,1.10
2022-11-12T22:16:24.702Z,1.40
2022-11-12T22:18:54.068Z,1.30
2022-11-12T22:21:26.792Z,1.17
2022-11-12T22:23:55.210Z,0.90
2022-11-12T22:26:25.363Z,1.20
2022-11-12T22:28:53.937Z,1.17
2022-11-12T22:31:29.375Z,1.00
2022-11-12T22:33:58.295Z,1.40
2022-11-12T22:36:27.419Z,1.20
2022-11-12T22:38:56.027Z,1.10
2022-11-12T22:41:31.413Z,1.00
2022-11-12T22:44:02.876Z,1.00
2022-11-12T22:46:34.881Z,1.50
2022-11-12T22:49:03.867Z,1.20
2022-11-12T22:51:32.782Z,0.90
2022-11-12T22:54:04.849Z,1.73
2022-11-12T22:56:35.302Z,1.57
2022-11-12T22:59:04.803Z,1.13
2022-11-12T23:01:34.384Z,1.77
2022-11-12T23:04:04.966Z,1.20
2022-11-12T23:06:32.522Z,0.83
2022-11-12T23:09:00.537Z,1.00
2022-11-12T23:11:28.092Z,1.03
2022-11-12T23:13:55.988Z,0.97
2022-11-12T23:16:25.804Z,1.35
2022-11-12T23:18:53.350Z,0.93
2022-11-12T23:21:26.602Z,1.30
2022-11-12T23:23:53.751Z,1.20
2022-11-12T23:26:23.183Z,1.07
2022-11-12T23:28:50.560Z,1.20
2022-11-12T23:31:22.914Z,1.00
2022-11-12T23:33:52.393Z,1.10
2022-11-12T23:36:20.397Z,1.40
2022-11-12T23:38:47.669Z,1.67
2022-11-12T23:41:17.177Z,1.20
2022-11-12T23:43:44.885Z,1.27
2022-11-12T23:46:12.713Z,2.27
2022-11-12T23:48:39.745Z,1.67
2022-11-12T23:51:10.070Z,1.20
2022-11-12T23:53:38.855Z,1.37
2022-11-12T23:56:07.906Z,1.00
2022-11-12T23:58:35.065Z,1.43
